sensor_id;sensor_type;location;lat;lon;timestamp;pressure;altitude;pressure_sealevel;temperature;humidity
6853;BME280;3465;42.144;24.722;2022-07-29T00:00:45;99520.28;;;24.62;70.83
6853;BME280;3465;42.144;24.722;2022-07-29T00:03:13;99501.31;;;24.55;71.02
6853;BME280;3465;42.144;24.722;2022-07-29T00:05:40;99503.69;;;24.61;70.68
6853;BME280;3465;42.144;24.722;2022-07-29T00:08:07;99517.13;;;24.54;70.97
6853;BME280;3465;42.144;24.722;2022-07-29T00:10:32;99495.72;;;24.43;70.64
6853;BME280;3465;42.144;24.722;2022-07-29T00:12:58;99494.91;;;24.42;70.71
6853;BME280;3465;42.144;24.722;2022-07-29T00:15:24;99507.63;;;24.51;70.59
6853;BME280;3465;42.144;24.722;2022-07-29T00:17:49;99507.09;;;24.43;71.53
6853;BME280;3465;42.144;24.722;2022-07-29T00:20:15;99502.03;;;24.39;71.46
6853;BME280;3465;42.144;24.722;2022-07-29T00:22:41;99508.97;;;24.40;72.42
6853;BME280;3465;42.144;24.722;2022-07-29T00:25:07;99522.19;;;24.38;72.84
6853;BME280;3465;42.144;24.722;2022-07-29T00:27:33;99412.34;;;23.86;72.16
6853;BME280;3465;42.144;24.722;2022-07-29T00:29:58;99507.28;;;24.39;73.12
6853;BME280;3465;42.144;24.722;2022-07-29T00:32:24;99512.81;;;24.53;72.70
6853;BME280;3465;42.144;24.722;2022-07-29T00:34:52;99510.03;;;24.36;73.33
6853;BME280;3465;42.144;24.722;2022-07-29T00:37:36;99506.56;;;24.35;73.91
6853;BME280;3465;42.144;24.722;2022-07-29T00:40:02;99500.75;;;24.27;74.50
6853;BME280;3465;42.144;24.722;2022-07-29T00:42:28;99490.22;;;24.07;75.55
6853;BME280;3465;42.144;24.722;2022-07-29T00:44:53;99483.31;;;24.05;75.58
6853;BME280;3465;42.144;24.722;2022-07-29T00:47:19;99503.28;;;24.09;75.84
6853;BME280;3465;42.144;24.722;2022-07-29T00:49:44;99508.28;;;24.15;76.58
6853;BME280;3465;42.144;24.722;2022-07-29T00:52:11;99518.00;;;24.13;76.74
6853;BME280;3465;42.144;24.722;2022-07-29T00:54:38;99498.28;;;24.02;77.02
6853;BME280;3465;42.144;24.722;2022-07-29T00:57:06;99487.59;;;24.07;77.25
6853;BME280;3465;42.144;24.722;2022-07-29T00:59:34;99494.25;;;24.16;77.41
6853;BME280;3465;42.144;24.722;2022-07-29T01:02:00;99503.53;;;24.24;78.28
6853;BME280;3465;42.144;24.722;2022-07-29T01:04:26;99504.47;;;24.22;78.40
6853;BME280;3465;42.144;24.722;2022-07-29T01:06:52;99504.88;;;24.13;78.94
6853;BME280;3465;42.144;24.722;2022-07-29T01:09:19;99507.50;;;24.13;78.94
6853;BME280;3465;42.144;24.722;2022-07-29T01:11:46;99493.88;;;24.03;79.37
6853;BME280;3465;42.144;24.722;2022-07-29T01:14:13;99492.13;;;24.04;79.43
6853;BME280;3465;42.144;24.722;2022-07-29T01:16:47;99504.88;;;24.13;79.86
6853;BME280;3465;42.144;24.722;2022-07-29T01:25:20;99517.44;;;24.26;79.78
6853;BME280;3465;42.144;24.722;2022-07-29T01:30:42;99521.16;;;24.42;79.81
6853;BME280;3465;42.144;24.722;2022-07-29T01:33:11;99500.69;;;24.29;79.79
6853;BME280;3465;42.144;24.722;2022-07-29T01:36:01;99520.00;;;24.28;80.69
6853;BME280;3465;42.144;24.722;2022-07-29T01:38:31;99498.34;;;24.01;81.29
6853;BME280;3465;42.144;24.722;2022-07-29T01:41:06;99510.50;;;24.04;81.57
6853;BME280;3465;42.144;24.722;2022-07-29T01:44:02;99507.94;;;24.02;81.68
6853;BME280;3465;42.144;24.722;2022-07-29T01:46:33;99498.50;;;23.96;81.40
6853;BME280;3465;42.144;24.722;2022-07-29T01:49:21;99490.25;;;23.84;81.52
6853;BME280;3465;42.144;24.722;2022-07-29T01:52:07;99504.66;;;23.95;81.95
6853;BME280;3465;42.144;24.722;2022-07-29T01:54:45;99492.00;;;23.83;81.30
6853;BME280;3465;42.144;24.722;2022-07-29T01:57:14;99513.38;;;23.74;82.17
6853;BME280;3465;42.144;24.722;2022-07-29T01:59:43;99507.50;;;23.68;82.83
6853;BME280;3465;42.144;24.722;2022-07-29T02:02:11;99497.75;;;23.48;83.52
6853;BME280;3465;42.144;24.722;2022-07-29T02:04:40;99506.38;;;23.52;83.89
6853;BME280;3465;42.144;24.722;2022-07-29T02:07:07;99486.66;;;23.42;82.24
6853;BME280;3465;42.144;24.722;2022-07-29T02:09:36;99502.16;;;23.48;82.03
6853;BME280;3465;42.144;24.722;2022-07-29T02:12:03;99506.69;;;23.44;81.79
6853;BME280;3465;42.144;24.722;2022-07-29T02:14:34;99506.88;;;23.38;83.59
6853;BME280;3465;42.144;24.722;2022-07-29T02:17:02;99491.81;;;23.20;83.06
6853;BME280;3465;42.144;24.722;2022-07-29T02:19:29;99504.00;;;23.21;83.16
6853;BME280;3465;42.144;24.722;2022-07-29T02:21:57;99496.25;;;23.18;83.32
6853;BME280;3465;42.144;24.722;2022-07-29T02:24:24;99486.22;;;23.06;83.37
6853;BME280;3465;42.144;24.722;2022-07-29T02:26:52;99489.28;;;22.94;84.60
6853;BME280;3465;42.144;24.722;2022-07-29T02:29:21;99499.47;;;23.02;85.05
6853;BME280;3465;42.144;24.722;2022-07-29T02:31:49;99477.38;;;22.86;85.40
6853;BME280;3465;42.144;24.722;2022-07-29T02:34:17;99479.63;;;22.95;84.19
6853;BME280;3465;42.144;24.722;2022-07-29T02:36:44;99480.38;;;22.98;84.41
6853;BME280;3465;42.144;24.722;2022-07-29T02:39:12;99470.03;;;22.95;85.16
6853;BME280;3465;42.144;24.722;2022-07-29T02:41:44;99488.78;;;23.08;85.38
6853;BME280;3465;42.144;24.722;2022-07-29T02:44:19;99481.03;;;23.05;85.81
6853;BME280;3465;42.144;24.722;2022-07-29T02:46:53;99497.31;;;23.13;85.88
6853;BME280;3465;42.144;24.722;2022-07-29T02:49:37;99493.28;;;23.04;86.49
6853;BME280;3465;42.144;24.722;2022-07-29T02:52:08;99492.53;;;23.01;85.27
6853;BME280;3465;42.144;24.722;2022-07-29T02:57:30;99495.53;;;22.90;84.90
6853;BME280;3465;42.144;24.722;2022-07-29T02:59:58;99500.19;;;22.82;86.10
6853;BME280;3465;42.144;24.722;2022-07-29T03:02:26;99479.72;;;22.69;87.23
6853;BME280;3465;42.144;24.722;2022-07-29T03:04:52;99496.78;;;22.80;87.04
6853;BME280;3465;42.144;24.722;2022-07-29T03:07:20;99481.25;;;22.74;87.28
6853;BME280;3465;42.144;24.722;2022-07-29T03:09:47;99493.53;;;22.74;87.77
6853;BME280;3465;42.144;24.722;2022-07-29T03:12:13;99503.34;;;22.67;88.73
6853;BME280;3465;42.144;24.722;2022-07-29T03:14:40;99500.84;;;22.64;88.91
6853;BME280;3465;42.144;24.722;2022-07-29T03:17:05;99495.97;;;22.53;89.71
6853;BME280;3465;42.144;24.722;2022-07-29T03:19:31;99495.28;;;22.47;90.17
6853;BME280;3465;42.144;24.722;2022-07-29T03:21:58;99512.59;;;22.52;90.62
6853;BME280;3465;42.144;24.722;2022-07-29T03:24:32;99515.19;;;22.52;89.89
6853;BME280;3465;42.144;24.722;2022-07-29T03:26:58;99513.97;;;22.62;88.88
6853;BME280;3465;42.144;24.722;2022-07-29T03:29:24;99514.66;;;22.67;88.48
6853;BME280;3465;42.144;24.722;2022-07-29T03:31:50;99498.63;;;22.52;89.71
6853;BME280;3465;42.144;24.722;2022-07-29T03:34:15;99503.75;;;22.55;89.84
6853;BME280;3465;42.144;24.722;2022-07-29T03:36:40;99509.91;;;22.54;88.91
6853;BME280;3465;42.144;24.722;2022-07-29T03:39:07;99514.00;;;22.61;88.63
6853;BME280;3465;42.144;24.722;2022-07-29T03:41:36;99526.16;;;22.63;88.18
6853;BME280;3465;42.144;24.722;2022-07-29T03:44:04;99518.53;;;22.57;88.26
6853;BME280;3465;42.144;24.722;2022-07-29T03:46:32;99537.56;;;22.61;87.99
6853;BME280;3465;42.144;24.722;2022-07-29T03:49:01;99519.59;;;22.50;87.94
6853;BME280;3465;42.144;24.722;2022-07-29T03:51:28;99521.34;;;22.50;87.24
6853;BME280;3465;42.144;24.722;2022-07-29T03:53:54;99528.50;;;22.45;87.61
6853;BME280;3465;42.144;24.722;2022-07-29T03:56:22;99529.06;;;22.28;89.11
6853;BME280;3465;42.144;24.722;2022-07-29T03:58:52;99528.44;;;22.20;90.18
6853;BME280;3465;42.144;24.722;2022-07-29T04:01:19;99530.91;;;22.25;90.56
6853;BME280;3465;42.144;24.722;2022-07-29T04:03:45;99511.69;;;22.26;90.09
6853;BME280;3465;42.144;24.722;2022-07-29T04:06:11;99538.88;;;22.48;89.93
6853;BME280;3465;42.144;24.722;2022-07-29T04:08:36;99532.13;;;22.41;90.02
6853;BME280;3465;42.144;24.722;2022-07-29T04:11:03;99535.34;;;22.49;89.73
6853;BME280;3465;42.144;24.722;2022-07-29T04:13:29;99532.56;;;22.55;89.63
6853;BME280;3465;42.144;24.722;2022-07-29T04:15:55;99545.38;;;22.62;89.37
6853;BME280;3465;42.144;24.722;2022-07-29T04:18:20;99547.06;;;22.65;89.02
6853;BME280;3465;42.144;24.722;2022-07-29T04:20:46;99538.09;;;22.72;88.50
6853;BME280;3465;42.144;24.722;2022-07-29T04:23:11;99547.28;;;22.84;87.41
6853;BME280;3465;42.144;24.722;2022-07-29T04:25:38;99541.31;;;22.80;88.13
6853;BME280;3465;42.144;24.722;2022-07-29T04:28:04;99535.31;;;22.77;88.18
6853;BME280;3465;42.144;24.722;2022-07-29T04:30:30;99547.97;;;22.89;88.07
6853;BME280;3465;42.144;24.722;2022-07-29T04:32:56;99489.03;;;22.52;87.50
6853;BME280;3465;42.144;24.722;2022-07-29T04:35:21;99536.84;;;22.82;87.48
6853;BME280;3465;42.144;24.722;2022-07-29T04:37:47;99528.94;;;22.84;86.54
6853;BME280;3465;42.144;24.722;2022-07-29T04:40:13;99536.59;;;22.90;86.27
6853;BME280;3465;42.144;24.722;2022-07-29T04:42:38;99525.38;;;22.86;85.74
6853;BME280;3465;42.144;24.722;2022-07-29T04:45:04;99538.84;;;23.00;85.75
6853;BME280;3465;42.144;24.722;2022-07-29T04:47:30;99538.19;;;22.94;86.52
6853;BME280;3465;42.144;24.722;2022-07-29T04:49:55;99547.63;;;22.99;86.89
6853;BME280;3465;42.144;24.722;2022-07-29T04:52:21;99560.22;;;23.13;86.66
6853;BME280;3465;42.144;24.722;2022-07-29T04:54:47;99543.75;;;23.09;86.22
6853;BME280;3465;42.144;24.722;2022-07-29T04:57:12;99552.81;;;23.24;85.50
6853;BME280;3465;42.144;24.722;2022-07-29T04:59:38;99547.47;;;23.28;85.53
6853;BME280;3465;42.144;24.722;2022-07-29T05:02:03;99489.97;;;22.99;85.02
6853;BME280;3465;42.144;24.722;2022-07-29T05:04:29;99552.25;;;23.40;85.03
6853;BME280;3465;42.144;24.722;2022-07-29T05:06:54;99551.13;;;23.47;84.36
6853;BME280;3465;42.144;24.722;2022-07-29T05:09:19;99536.97;;;23.51;83.30
6853;BME280;3465;42.144;24.722;2022-07-29T05:11:45;99539.22;;;23.62;82.99
6853;BME280;3465;42.144;24.722;2022-07-29T05:14:11;99563.78;;;23.82;82.83
6853;BME280;3465;42.144;24.722;2022-07-29T05:16:36;99548.88;;;23.83;82.93
6853;BME280;3465;42.144;24.722;2022-07-29T05:19:02;99540.84;;;23.87;82.93
6853;BME280;3465;42.144;24.722;2022-07-29T05:21:27;99546.38;;;24.03;82.28
6853;BME280;3465;42.144;24.722;2022-07-29T05:23:53;99557.34;;;24.13;81.76
6853;BME280;3465;42.144;24.722;2022-07-29T05:26:18;99561.53;;;24.18;81.08
6853;BME280;3465;42.144;24.722;2022-07-29T05:28:43;99561.03;;;24.30;80.26
6853;BME280;3465;42.144;24.722;2022-07-29T05:31:09;99559.13;;;24.34;80.31
6853;BME280;3465;42.144;24.722;2022-07-29T05:33:34;99551.66;;;24.23;79.57
6853;BME280;3465;42.144;24.722;2022-07-29T05:36:00;99570.06;;;24.45;79.07
6853;BME280;3465;42.144;24.722;2022-07-29T05:38:25;99571.69;;;24.47;79.75
6853;BME280;3465;42.144;24.722;2022-07-29T05:40:50;99560.53;;;24.42;79.45
6853;BME280;3465;42.144;24.722;2022-07-29T05:43:16;99563.31;;;24.38;78.51
6853;BME280;3465;42.144;24.722;2022-07-29T05:45:41;99548.38;;;24.40;77.48
6853;BME280;3465;42.144;24.722;2022-07-29T05:48:07;99569.38;;;24.61;77.07
6853;BME280;3465;42.144;24.722;2022-07-29T05:50:32;99575.81;;;24.76;77.22
6853;BME280;3465;42.144;24.722;2022-07-29T05:52:57;99574.41;;;24.87;76.50
6853;BME280;3465;42.144;24.722;2022-07-29T05:55:23;99593.69;;;25.08;76.03
6853;BME280;3465;42.144;24.722;2022-07-29T05:57:48;99588.75;;;25.20;75.46
6853;BME280;3465;42.144;24.722;2022-07-29T06:00:14;99590.81;;;25.32;75.18
6853;BME280;3465;42.144;24.722;2022-07-29T06:02:39;99591.44;;;25.39;75.03
6853;BME280;3465;42.144;24.722;2022-07-29T06:05:05;99586.31;;;25.56;74.72
6853;BME280;3465;42.144;24.722;2022-07-29T06:07:30;99584.13;;;25.66;74.24
6853;BME280;3465;42.144;24.722;2022-07-29T06:09:57;99571.78;;;25.66;74.04
6853;BME280;3465;42.144;24.722;2022-07-29T06:12:23;99561.00;;;25.72;73.26
6853;BME280;3465;42.144;24.722;2022-07-29T06:14:48;99587.22;;;26.12;72.52
6853;BME280;3465;42.144;24.722;2022-07-29T06:17:15;99590.38;;;26.37;71.37
6853;BME280;3465;42.144;24.722;2022-07-29T06:19:41;99594.03;;;26.52;70.48
6853;BME280;3465;42.144;24.722;2022-07-29T06:22:06;99592.00;;;26.76;69.50
6853;BME280;3465;42.144;24.722;2022-07-29T06:24:32;99597.84;;;26.99;68.88
6853;BME280;3465;42.144;24.722;2022-07-29T06:26:57;99589.66;;;27.21;68.52
6853;BME280;3465;42.144;24.722;2022-07-29T06:29:22;99592.53;;;27.50;67.09
6853;BME280;3465;42.144;24.722;2022-07-29T06:31:48;99587.13;;;27.84;65.28
6853;BME280;3465;42.144;24.722;2022-07-29T06:34:13;99597.16;;;28.42;63.29
6853;BME280;3465;42.144;24.722;2022-07-29T06:36:39;99596.19;;;29.03;59.85
6853;BME280;3465;42.144;24.722;2022-07-29T06:39:10;99605.38;;;30.12;56.96
6853;BME280;3465;42.144;24.722;2022-07-29T06:41:36;99616.50;;;31.11;52.65
6853;BME280;3465;42.144;24.722;2022-07-29T06:44:02;99609.81;;;32.18;49.43
6853;BME280;3465;42.144;24.722;2022-07-29T06:46:27;99610.91;;;33.10;45.84
6853;BME280;3465;42.144;24.722;2022-07-29T06:48:53;99599.31;;;33.90;44.12
6853;BME280;3465;42.144;24.722;2022-07-29T06:51:19;99616.47;;;34.52;41.98
6853;BME280;3465;42.144;24.722;2022-07-29T06:53:47;99611.59;;;35.20;39.95
6853;BME280;3465;42.144;24.722;2022-07-29T06:56:12;99622.88;;;35.65;39.35
6853;BME280;3465;42.144;24.722;2022-07-29T06:58:39;99604.19;;;35.44;39.96
6853;BME280;3465;42.144;24.722;2022-07-29T07:01:05;99626.53;;;36.24;37.99
6853;BME280;3465;42.144;24.722;2022-07-29T07:03:31;99619.75;;;37.07;36.45
6853;BME280;3465;42.144;24.722;2022-07-29T07:05:57;99631.75;;;37.88;35.13
6853;BME280;3465;42.144;24.722;2022-07-29T07:08:23;99624.41;;;37.90;34.59
6853;BME280;3465;42.144;24.722;2022-07-29T07:10:49;99637.59;;;38.82;33.15
6853;BME280;3465;42.144;24.722;2022-07-29T07:13:15;99630.44;;;39.00;32.25
6853;BME280;3465;42.144;24.722;2022-07-29T07:15:45;99635.00;;;40.02;31.49
6853;BME280;3465;42.144;24.722;2022-07-29T07:18:14;99624.91;;;40.30;29.99
6853;BME280;3465;42.144;24.722;2022-07-29T07:20:40;99628.78;;;40.35;30.04
6853;BME280;3465;42.144;24.722;2022-07-29T07:23:06;99632.66;;;39.48;31.22
6853;BME280;3465;42.144;24.722;2022-07-29T07:25:31;99638.88;;;40.00;30.49
6853;BME280;3465;42.144;24.722;2022-07-29T07:27:57;99639.03;;;40.89;29.36
6853;BME280;3465;42.144;24.722;2022-07-29T07:30:23;99642.09;;;41.59;28.60
6853;BME280;3465;42.144;24.722;2022-07-29T07:32:48;99639.94;;;41.22;28.46
6853;BME280;3465;42.144;24.722;2022-07-29T07:35:14;99639.94;;;40.07;29.50
6853;BME280;3465;42.144;24.722;2022-07-29T07:37:39;99642.69;;;40.23;29.32
6853;BME280;3465;42.144;24.722;2022-07-29T07:40:10;99634.50;;;40.90;29.20
6853;BME280;3465;42.144;24.722;2022-07-29T07:42:37;99645.63;;;41.67;27.56
6853;BME280;3465;42.144;24.722;2022-07-29T07:45:03;99641.59;;;41.39;28.41
6853;BME280;3465;42.144;24.722;2022-07-29T07:47:30;99619.13;;;40.98;28.29
6853;BME280;3465;42.144;24.722;2022-07-29T07:49:55;99639.03;;;42.24;27.12
6853;BME280;3465;42.144;24.722;2022-07-29T07:52:21;99648.41;;;42.75;25.98
6853;BME280;3465;42.144;24.722;2022-07-29T07:54:47;99633.88;;;42.07;26.07
6853;BME280;3465;42.144;24.722;2022-07-29T07:57:13;99636.94;;;42.42;26.39
6853;BME280;3465;42.144;24.722;2022-07-29T07:59:39;99622.91;;;42.08;26.64
6853;BME280;3465;42.144;24.722;2022-07-29T08:02:05;99633.66;;;42.86;26.03
6853;BME280;3465;42.144;24.722;2022-07-29T08:04:31;99639.66;;;43.18;25.09
6853;BME280;3465;42.144;24.722;2022-07-29T08:06:58;99632.94;;;40.79;25.93
6853;BME280;3465;42.144;24.722;2022-07-29T08:09:25;99625.66;;;40.56;26.22
6853;BME280;3465;42.144;24.722;2022-07-29T08:11:51;99620.72;;;41.17;25.71
6853;BME280;3465;42.144;24.722;2022-07-29T08:14:16;99627.84;;;41.97;25.37
6853;BME280;3465;42.144;24.722;2022-07-29T08:16:42;99631.56;;;41.88;25.44
6853;BME280;3465;42.144;24.722;2022-07-29T08:19:08;99624.72;;;41.37;26.35
6853;BME280;3465;42.144;24.722;2022-07-29T08:21:34;99628.88;;;41.96;25.55
6853;BME280;3465;42.144;24.722;2022-07-29T08:23:59;99633.69;;;41.13;26.34
6853;BME280;3465;42.144;24.722;2022-07-29T08:26:44;99632.78;;;40.97;23.87
6853;BME280;3465;42.144;24.722;2022-07-29T08:29:09;99618.16;;;40.91;24.61
6853;BME280;3465;42.144;24.722;2022-07-29T08:31:39;99629.75;;;41.08;24.55
6853;BME280;3465;42.144;24.722;2022-07-29T08:34:05;99623.66;;;40.16;25.13
6853;BME280;3465;42.144;24.722;2022-07-29T08:36:31;99612.94;;;39.22;25.78
6853;BME280;3465;42.144;24.722;2022-07-29T08:38:57;99617.34;;;38.88;26.28
6853;BME280;3465;42.144;24.722;2022-07-29T08:41:23;99613.03;;;38.95;26.13
6853;BME280;3465;42.144;24.722;2022-07-29T08:43:49;99604.03;;;38.69;25.09
6853;BME280;3465;42.144;24.722;2022-07-29T08:46:16;99601.00;;;37.26;26.26
6853;BME280;3465;42.144;24.722;2022-07-29T08:48:43;99592.41;;;38.15;25.23
6853;BME280;3465;42.144;24.722;2022-07-29T08:51:13;99594.84;;;38.71;24.17
6853;BME280;3465;42.144;24.722;2022-07-29T08:53:41;99585.44;;;38.40;24.12
6853;BME280;3465;42.144;24.722;2022-07-29T08:56:11;99597.16;;;38.21;25.10
6853;BME280;3465;42.144;24.722;2022-07-29T08:58:41;99587.09;;;37.50;25.91
6853;BME280;3465;42.144;24.722;2022-07-29T09:01:08;99598.56;;;39.05;24.77
6853;BME280;3465;42.144;24.722;2022-07-29T09:03:36;99581.00;;;40.04;23.87
6853;BME280;3465;42.144;24.722;2022-07-29T09:06:03;99579.91;;;41.12;23.12
6853;BME280;3465;42.144;24.722;2022-07-29T09:08:30;99603.69;;;41.16;21.11
6853;BME280;3465;42.144;24.722;2022-07-29T09:10:56;99579.91;;;39.80;22.82
6853;BME280;3465;42.144;24.722;2022-07-29T09:13:22;99578.19;;;40.13;22.76
6853;BME280;3465;42.144;24.722;2022-07-29T09:15:48;99589.47;;;41.06;22.19
6853;BME280;3465;42.144;24.722;2022-07-29T09:21:05;99586.94;;;41.53;22.03
6853;BME280;3465;42.144;24.722;2022-07-29T09:24:12;99588.66;;;40.16;23.08
6853;BME280;3465;42.144;24.722;2022-07-29T09:26:40;99585.97;;;41.30;22.65
6853;BME280;3465;42.144;24.722;2022-07-29T09:29:14;99579.41;;;39.51;22.77
6853;BME280;3465;42.144;24.722;2022-07-29T09:31:44;99578.53;;;39.25;23.57
6853;BME280;3465;42.144;24.722;2022-07-29T09:34:12;99577.19;;;39.21;22.94
6853;BME280;3465;42.144;24.722;2022-07-29T09:36:46;99564.94;;;39.52;22.88
6853;BME280;3465;42.144;24.722;2022-07-29T09:39:13;99564.72;;;40.13;23.30
6853;BME280;3465;42.144;24.722;2022-07-29T09:41:55;99575.63;;;40.61;22.28
6853;BME280;3465;42.144;24.722;2022-07-29T09:44:22;99574.19;;;41.15;21.69
6853;BME280;3465;42.144;24.722;2022-07-29T09:46:56;99559.50;;;40.93;21.57
6853;BME280;3465;42.144;24.722;2022-07-29T09:49:22;99554.66;;;39.81;22.13
6853;BME280;3465;42.144;24.722;2022-07-29T09:51:59;99563.31;;;40.43;22.17
6853;BME280;3465;42.144;24.722;2022-07-29T09:54:26;99567.31;;;41.83;22.09
6853;BME280;3465;42.144;24.722;2022-07-29T09:56:53;99562.31;;;41.48;22.12
6853;BME280;3465;42.144;24.722;2022-07-29T09:59:19;99554.25;;;40.02;23.20
6853;BME280;3465;42.144;24.722;2022-07-29T10:01:48;99542.75;;;40.26;22.99
6853;BME280;3465;42.144;24.722;2022-07-29T10:04:21;99555.47;;;41.13;22.46
6853;BME280;3465;42.144;24.722;2022-07-29T10:06:57;99548.53;;;40.05;23.08
6853;BME280;3465;42.144;24.722;2022-07-29T10:09:23;99543.47;;;40.52;21.13
6853;BME280;3465;42.144;24.722;2022-07-29T10:12:13;99552.69;;;38.36;23.44
6853;BME280;3465;42.144;24.722;2022-07-29T10:14:40;99540.38;;;38.61;22.48
6853;BME280;3465;42.144;24.722;2022-07-29T10:17:07;99544.84;;;39.98;21.24
6853;BME280;3465;42.144;24.722;2022-07-29T10:19:34;99534.59;;;41.15;21.05
6853;BME280;3465;42.144;24.722;2022-07-29T10:22:07;99548.72;;;42.19;20.90
6853;BME280;3465;42.144;24.722;2022-07-29T10:24:33;99542.75;;;42.09;20.59
6853;BME280;3465;42.144;24.722;2022-07-29T10:27:02;99547.22;;;40.91;20.77
6853;BME280;3465;42.144;24.722;2022-07-29T10:29:28;99532.34;;;41.35;20.37
6853;BME280;3465;42.144;24.722;2022-07-29T10:34:53;99546.69;;;39.38;22.39
6853;BME280;3465;42.144;24.722;2022-07-29T10:37:33;99531.78;;;39.77;22.03
6853;BME280;3465;42.144;24.722;2022-07-29T10:43:17;99537.84;;;42.04;20.37
6853;BME280;3465;42.144;24.722;2022-07-29T10:45:46;99516.88;;;41.13;21.41
6853;BME280;3465;42.144;24.722;2022-07-29T10:48:13;99506.69;;;41.47;20.65
6853;BME280;3465;42.144;24.722;2022-07-29T10:51:01;99512.38;;;41.68;21.85
6853;BME280;3465;42.144;24.722;2022-07-29T10:53:52;99516.66;;;42.92;20.56
6853;BME280;3465;42.144;24.722;2022-07-29T10:56:29;99509.75;;;43.12;20.60
6853;BME280;3465;42.144;24.722;2022-07-29T11:01:43;99504.59;;;41.73;21.05
6853;BME280;3465;42.144;24.722;2022-07-29T11:04:09;99486.03;;;41.07;21.46
6853;BME280;3465;42.144;24.722;2022-07-29T11:07:13;99500.38;;;40.84;21.76
6853;BME280;3465;42.144;24.722;2022-07-29T11:09:39;99492.34;;;41.93;20.93
6853;BME280;3465;42.144;24.722;2022-07-29T11:12:45;99444.94;;;43.10;20.14
6853;BME280;3465;42.144;24.722;2022-07-29T11:15:15;99498.06;;;43.84;19.94
6853;BME280;3465;42.144;24.722;2022-07-29T11:23:36;99484.25;;;43.79;19.89
6853;BME280;3465;42.144;24.722;2022-07-29T11:39:45;99470.00;;;42.07;22.14
6853;BME280;3465;42.144;24.722;2022-07-29T11:47:26;99440.44;;;40.66;23.76
6853;BME280;3465;42.144;24.722;2022-07-29T11:49:53;99428.31;;;40.30;24.10
6853;BME280;3465;42.144;24.722;2022-07-29T11:52:19;99435.44;;;39.06;25.58
6853;BME280;3465;42.144;24.722;2022-07-29T11:54:48;99423.06;;;37.91;26.52
6853;BME280;3465;42.144;24.722;2022-07-29T11:57:17;99432.88;;;38.00;26.66
6853;BME280;3465;42.144;24.722;2022-07-29T11:59:45;99409.25;;;38.39;26.24
6853;BME280;3465;42.144;24.722;2022-07-29T12:02:11;99407.66;;;39.23;26.12
6853;BME280;3465;42.144;24.722;2022-07-29T12:04:55;99404.41;;;39.45;25.44
6853;BME280;3465;42.144;24.722;2022-07-29T12:07:29;99402.47;;;39.79;24.80
6853;BME280;3465;42.144;24.722;2022-07-29T12:09:54;99359.69;;;39.02;25.08
6853;BME280;3465;42.144;24.722;2022-07-29T12:12:21;99419.66;;;39.11;25.20
6853;BME280;3465;42.144;24.722;2022-07-29T12:14:46;99403.09;;;37.76;26.71
6853;BME280;3465;42.144;24.722;2022-07-29T12:17:32;99402.13;;;38.47;25.63
6853;BME280;3465;42.144;24.722;2022-07-29T12:20:03;99401.34;;;39.06;25.24
6853;BME280;3465;42.144;24.722;2022-07-29T12:22:35;99406.22;;;39.44;24.66
6853;BME280;3465;42.144;24.722;2022-07-29T12:25:07;99416.19;;;40.18;24.27
6853;BME280;3465;42.144;24.722;2022-07-29T12:27:33;99401.53;;;39.46;24.08
6853;BME280;3465;42.144;24.722;2022-07-29T12:30:02;99403.97;;;39.32;24.88
6853;BME280;3465;42.144;24.722;2022-07-29T12:35:09;99397.19;;;40.51;23.31
6853;BME280;3465;42.144;24.722;2022-07-29T12:37:36;99392.94;;;40.65;23.02
6853;BME280;3465;42.144;24.722;2022-07-29T12:40:04;99400.28;;;41.11;22.62
6853;BME280;3465;42.144;24.722;2022-07-29T12:42:30;99388.56;;;40.08;23.37
6853;BME280;3465;42.144;24.722;2022-07-29T12:44:55;99378.84;;;38.82;25.16
6853;BME280;3465;42.144;24.722;2022-07-29T12:47:21;99386.09;;;38.38;25.30
6853;BME280;3465;42.144;24.722;2022-07-29T12:49:47;99379.78;;;37.59;26.20
6853;BME280;3465;42.144;24.722;2022-07-29T12:52:32;99374.22;;;37.88;26.01
6853;BME280;3465;42.144;24.722;2022-07-29T12:54:57;99374.47;;;37.50;26.26
6853;BME280;3465;42.144;24.722;2022-07-29T12:57:23;99351.06;;;36.88;27.17
6853;BME280;3465;42.144;24.722;2022-07-29T13:02:30;99346.25;;;36.55;28.17
6853;BME280;3465;42.144;24.722;2022-07-29T13:04:57;99349.59;;;36.57;28.04
6853;BME280;3465;42.144;24.722;2022-07-29T13:07:27;99279.50;;;36.25;27.82
6853;BME280;3465;42.144;24.722;2022-07-29T13:09:54;99344.16;;;36.39;28.30
6853;BME280;3465;42.144;24.722;2022-07-29T13:12:20;99336.84;;;36.32;28.77
6853;BME280;3465;42.144;24.722;2022-07-29T13:14:49;99332.88;;;36.26;28.65
6853;BME280;3465;42.144;24.722;2022-07-29T13:17:20;99342.47;;;36.38;28.79
6853;BME280;3465;42.144;24.722;2022-07-29T13:19:52;99328.84;;;36.03;29.04
6853;BME280;3465;42.144;24.722;2022-07-29T13:22:23;99322.38;;;35.86;29.57
6853;BME280;3465;42.144;24.722;2022-07-29T13:24:51;99306.72;;;35.72;29.14
6853;BME280;3465;42.144;24.722;2022-07-29T13:27:18;99315.72;;;35.71;29.56
6853;BME280;3465;42.144;24.722;2022-07-29T13:29:44;99312.59;;;35.38;29.42
6853;BME280;3465;42.144;24.722;2022-07-29T13:32:09;99270.59;;;34.91;30.00
6853;BME280;3465;42.144;24.722;2022-07-29T13:34:35;99312.53;;;35.19;30.27
6853;BME280;3465;42.144;24.722;2022-07-29T13:37:03;99312.53;;;35.19;29.98
6853;BME280;3465;42.144;24.722;2022-07-29T13:39:29;99298.91;;;35.22;30.85
6853;BME280;3465;42.144;24.722;2022-07-29T13:41:55;99280.88;;;35.05;30.88
6853;BME280;3465;42.144;24.722;2022-07-29T13:44:21;99296.34;;;35.01;30.51
6853;BME280;3465;42.144;24.722;2022-07-29T13:46:46;99292.13;;;34.99;30.29
6853;BME280;3465;42.144;24.722;2022-07-29T13:49:11;99291.00;;;35.01;30.10
6853;BME280;3465;42.144;24.722;2022-07-29T13:51:37;99292.88;;;35.20;30.52
6853;BME280;3465;42.144;24.722;2022-07-29T13:54:03;99293.03;;;35.28;30.35
6853;BME280;3465;42.144;24.722;2022-07-29T13:56:29;99283.97;;;35.00;30.38
6853;BME280;3465;42.144;24.722;2022-07-29T13:58:57;99282.00;;;34.93;30.80
6853;BME280;3465;42.144;24.722;2022-07-29T14:01:24;99272.84;;;34.95;31.01
6853;BME280;3465;42.144;24.722;2022-07-29T14:03:49;99272.59;;;35.08;30.95
6853;BME280;3465;42.144;24.722;2022-07-29T14:06:15;99274.84;;;35.12;30.39
6853;BME280;3465;42.144;24.722;2022-07-29T14:08:40;99271.66;;;34.88;31.14